sensor_id;sensor_type;location;lat;lon;timestamp;P1;durP1;ratioP1;P2;durP2;ratioP2
63434;SDS011;68814;50.872;5.306;2023-08-30T00:00:58;17.67;;;11.32;;
63434;SDS011;68814;50.872;5.306;2023-08-30T00:03:24;17.65;;;10.27;;
63434;SDS011;68814;50.872;5.306;2023-08-30T00:05:50;16.08;;;11.88;;
63434;SDS011;68814;50.872;5.306;2023-08-30T00:08:16;21.08;;;13.18;;
63434;SDS011;68814;50.872;5.306;2023-08-30T00:10:44;18.95;;;13.48;;
63434;SDS011;68814;50.872;5.306;2023-08-30T00:13:13;19.13;;;13.77;;
63434;SDS011;68814;50.872;5.306;2023-08-30T00:15:39;23.08;;;16.00;;
63434;SDS011;68814;50.872;5.306;2023-08-30T00:18:05;22.75;;;14.73;;
63434;SDS011;68814;50.872;5.306;2023-08-30T00:20:34;32.78;;;16.73;;
63434;SDS011;68814;50.872;5.306;2023-08-30T00:23:00;28.88;;;16.05;;
63434;SDS011;68814;50.872;5.306;2023-08-30T00:25:25;25.80;;;16.45;;
63434;SDS011;68814;50.872;5.306;2023-08-30T00:27:51;22.42;;;15.82;;
63434;SDS011;68814;50.872;5.306;2023-08-30T00:30:20;29.42;;;16.55;;
63434;SDS011;68814;50.872;5.306;2023-08-30T00:32:46;27.55;;;18.60;;
63434;SDS011;68814;50.872;5.306;2023-08-30T00:35:12;26.92;;;18.60;;
63434;SDS011;68814;50.872;5.306;2023-08-30T00:37:37;24.88;;;17.92;;
63434;SDS011;68814;50.872;5.306;2023-08-30T00:40:03;26.65;;;18.48;;
63434;SDS011;68814;50.872;5.306;2023-08-30T00:42:30;26.58;;;18.90;;
63434;SDS011;68814;50.872;5.306;2023-08-30T00:44:56;25.92;;;18.60;;
63434;SDS011;68814;50.872;5.306;2023-08-30T00:47:22;26.70;;;17.58;;
63434;SDS011;68814;50.872;5.306;2023-08-30T00:49:48;25.85;;;18.20;;
63434;SDS011;68814;50.872;5.306;2023-08-30T00:52:14;30.60;;;17.63;;
63434;SDS011;68814;50.872;5.306;2023-08-30T00:54:40;26.75;;;17.23;;
63434;SDS011;68814;50.872;5.306;2023-08-30T00:57:06;30.65;;;18.05;;
63434;SDS011;68814;50.872;5.306;2023-08-30T00:59:33;30.38;;;18.33;;
63434;SDS011;68814;50.872;5.306;2023-08-30T01:01:59;26.58;;;18.48;;
63434;SDS011;68814;50.872;5.306;2023-08-30T01:04:27;26.63;;;18.02;;
63434;SDS011;68814;50.872;5.306;2023-08-30T01:06:52;24.27;;;17.15;;
63434;SDS011;68814;50.872;5.306;2023-08-30T01:09:18;26.85;;;18.05;;
63434;SDS011;68814;50.872;5.306;2023-08-30T01:11:53;27.52;;;17.60;;
63434;SDS011;68814;50.872;5.306;2023-08-30T01:17:12;29.33;;;17.77;;
63434;SDS011;68814;50.872;5.306;2023-08-30T01:19:42;24.30;;;16.85;;
63434;SDS011;68814;50.872;5.306;2023-08-30T01:22:55;28.38;;;18.63;;
63434;SDS011;68814;50.872;5.306;2023-08-30T01:28:40;22.52;;;17.10;;
63434;SDS011;68814;50.872;5.306;2023-08-30T01:31:09;22.85;;;17.98;;
63434;SDS011;68814;50.872;5.306;2023-08-30T01:33:40;23.88;;;17.67;;
63434;SDS011;68814;50.872;5.306;2023-08-30T01:36:09;27.02;;;18.02;;
63434;SDS011;68814;50.872;5.306;2023-08-30T01:38:36;25.88;;;17.88;;
63434;SDS011;68814;50.872;5.306;2023-08-30T01:41:06;28.98;;;18.30;;
63434;SDS011;68814;50.872;5.306;2023-08-30T01:43:32;28.88;;;18.27;;
63434;SDS011;68814;50.872;5.306;2023-08-30T01:45:58;29.45;;;18.50;;
63434;SDS011;68814;50.872;5.306;2023-08-30T01:48:26;25.65;;;18.17;;
63434;SDS011;68814;50.872;5.306;2023-08-30T01:50:54;23.17;;;18.65;;
63434;SDS011;68814;50.872;5.306;2023-08-30T01:53:24;26.25;;;18.13;;
63434;SDS011;68814;50.872;5.306;2023-08-30T01:55:51;24.58;;;18.05;;
63434;SDS011;68814;50.872;5.306;2023-08-30T01:58:19;25.38;;;18.75;;
63434;SDS011;68814;50.872;5.306;2023-08-30T02:00:45;26.02;;;18.98;;
63434;SDS011;68814;50.872;5.306;2023-08-30T02:03:12;29.05;;;18.65;;
63434;SDS011;68814;50.872;5.306;2023-08-30T02:05:42;27.38;;;19.23;;
63434;SDS011;68814;50.872;5.306;2023-08-30T02:08:35;30.20;;;17.70;;
63434;SDS011;68814;50.872;5.306;2023-08-30T02:11:28;26.35;;;18.38;;
63434;SDS011;68814;50.872;5.306;2023-08-30T02:14:04;27.88;;;19.45;;
63434;SDS011;68814;50.872;5.306;2023-08-30T02:16:42;30.08;;;18.17;;
63434;SDS011;68814;50.872;5.306;2023-08-30T02:19:12;27.05;;;17.75;;
63434;SDS011;68814;50.872;5.306;2023-08-30T02:21:42;21.98;;;17.05;;
63434;SDS011;68814;50.872;5.306;2023-08-30T02:24:10;24.80;;;18.27;;
63434;SDS011;68814;50.872;5.306;2023-08-30T02:26:36;22.85;;;16.38;;
63434;SDS011;68814;50.872;5.306;2023-08-30T02:29:03;30.80;;;18.75;;
63434;SDS011;68814;50.872;5.306;2023-08-30T02:31:29;24.65;;;18.10;;
63434;SDS011;68814;50.872;5.306;2023-08-30T02:33:54;24.77;;;17.10;;
63434;SDS011;68814;50.872;5.306;2023-08-30T02:36:20;24.25;;;17.27;;
63434;SDS011;68814;50.872;5.306;2023-08-30T02:38:48;23.02;;;16.83;;
63434;SDS011;68814;50.872;5.306;2023-08-30T02:41:14;27.90;;;18.20;;
63434;SDS011;68814;50.872;5.306;2023-08-30T02:43:39;24.83;;;17.95;;
63434;SDS011;68814;50.872;5.306;2023-08-30T02:46:05;30.95;;;19.13;;
63434;SDS011;68814;50.872;5.306;2023-08-30T02:48:33;23.08;;;17.33;;
63434;SDS011;68814;50.872;5.306;2023-08-30T02:50:59;25.95;;;17.73;;
63434;SDS011;68814;50.872;5.306;2023-08-30T02:53:25;27.23;;;16.95;;
63434;SDS011;68814;50.872;5.306;2023-08-30T02:55:51;23.77;;;16.13;;
63434;SDS011;68814;50.872;5.306;2023-08-30T02:58:20;24.60;;;18.27;;
63434;SDS011;68814;50.872;5.306;2023-08-30T03:00:46;24.63;;;17.02;;
63434;SDS011;68814;50.872;5.306;2023-08-30T03:03:12;33.45;;;19.35;;
63434;SDS011;68814;50.872;5.306;2023-08-30T03:05:38;26.85;;;18.80;;
63434;SDS011;68814;50.872;5.306;2023-08-30T03:08:06;27.23;;;18.90;;
63434;SDS011;68814;50.872;5.306;2023-08-30T03:10:32;27.02;;;18.08;;
63434;SDS011;68814;50.872;5.306;2023-08-30T03:12:58;27.23;;;18.38;;
63434;SDS011;68814;50.872;5.306;2023-08-30T03:15:23;27.05;;;19.80;;
63434;SDS011;68814;50.872;5.306;2023-08-30T03:17:49;38.88;;;21.08;;
63434;SDS011;68814;50.872;5.306;2023-08-30T03:20:15;31.33;;;19.33;;
63434;SDS011;68814;50.872;5.306;2023-08-30T03:22:41;33.78;;;21.33;;
63434;SDS011;68814;50.872;5.306;2023-08-30T03:25:07;30.10;;;20.38;;
63434;SDS011;68814;50.872;5.306;2023-08-30T03:27:34;27.52;;;20.13;;
63434;SDS011;68814;50.872;5.306;2023-08-30T03:30:00;30.52;;;20.55;;
63434;SDS011;68814;50.872;5.306;2023-08-30T03:32:27;30.65;;;20.55;;
63434;SDS011;68814;50.872;5.306;2023-08-30T03:34:53;35.03;;;21.40;;
63434;SDS011;68814;50.872;5.306;2023-08-30T03:37:18;32.58;;;20.92;;
63434;SDS011;68814;50.872;5.306;2023-08-30T03:39:44;30.52;;;21.23;;
63434;SDS011;68814;50.872;5.306;2023-08-30T03:42:13;28.80;;;20.45;;
63434;SDS011;68814;50.872;5.306;2023-08-30T03:44:38;34.75;;;21.63;;
63434;SDS011;68814;50.872;5.306;2023-08-30T03:47:04;29.85;;;20.15;;
63434;SDS011;68814;50.872;5.306;2023-08-30T03:49:30;26.20;;;19.33;;
63434;SDS011;68814;50.872;5.306;2023-08-30T03:51:56;31.10;;;21.48;;
63434;SDS011;68814;50.872;5.306;2023-08-30T03:54:24;30.50;;;21.23;;
63434;SDS011;68814;50.872;5.306;2023-08-30T03:56:50;30.02;;;21.15;;
63434;SDS011;68814;50.872;5.306;2023-08-30T03:59:16;32.30;;;20.65;;
63434;SDS011;68814;50.872;5.306;2023-08-30T04:01:44;34.35;;;21.48;;
63434;SDS011;68814;50.872;5.306;2023-08-30T04:04:10;29.92;;;20.73;;
63434;SDS011;68814;50.872;5.306;2023-08-30T04:06:36;30.88;;;19.92;;
63434;SDS011;68814;50.872;5.306;2023-08-30T04:09:02;27.00;;;19.60;;
63434;SDS011;68814;50.872;5.306;2023-08-30T04:11:27;30.40;;;20.50;;
63434;SDS011;68814;50.872;5.306;2023-08-30T04:13:53;26.27;;;19.75;;
63434;SDS011;68814;50.872;5.306;2023-08-30T04:16:19;31.30;;;21.13;;
63434;SDS011;68814;50.872;5.306;2023-08-30T04:18:44;26.63;;;19.30;;
63434;SDS011;68814;50.872;5.306;2023-08-30T04:21:10;31.13;;;20.95;;
63434;SDS011;68814;50.872;5.306;2023-08-30T04:23:36;31.42;;;20.30;;
63434;SDS011;68814;50.872;5.306;2023-08-30T04:26:02;27.13;;;18.85;;
63434;SDS011;68814;50.872;5.306;2023-08-30T04:28:28;28.58;;;20.05;;
63434;SDS011;68814;50.872;5.306;2023-08-30T04:30:59;36.42;;;20.20;;
63434;SDS011;68814;50.872;5.306;2023-08-30T04:33:25;31.70;;;20.13;;
63434;SDS011;68814;50.872;5.306;2023-08-30T04:35:54;28.90;;;19.00;;
63434;SDS011;68814;50.872;5.306;2023-08-30T04:38:30;34.15;;;20.42;;
63434;SDS011;68814;50.872;5.306;2023-08-30T04:40:58;29.67;;;19.48;;
63434;SDS011;68814;50.872;5.306;2023-08-30T04:43:24;25.42;;;18.45;;
63434;SDS011;68814;50.872;5.306;2023-08-30T04:45:50;29.20;;;20.20;;
63434;SDS011;68814;50.872;5.306;2023-08-30T04:48:15;29.05;;;18.58;;
63434;SDS011;68814;50.872;5.306;2023-08-30T04:50:41;29.05;;;19.80;;
63434;SDS011;68814;50.872;5.306;2023-08-30T04:53:09;30.85;;;18.63;;
63434;SDS011;68814;50.872;5.306;2023-08-30T04:55:35;24.98;;;17.13;;
63434;SDS011;68814;50.872;5.306;2023-08-30T04:58:01;28.92;;;18.38;;
63434;SDS011;68814;50.872;5.306;2023-08-30T05:00:27;27.83;;;18.80;;
63434;SDS011;68814;50.872;5.306;2023-08-30T05:02:53;27.92;;;17.05;;
63434;SDS011;68814;50.872;5.306;2023-08-30T05:05:19;25.40;;;16.77;;
63434;SDS011;68814;50.872;5.306;2023-08-30T05:07:45;25.13;;;16.88;;
63434;SDS011;68814;50.872;5.306;2023-08-30T05:10:10;23.45;;;16.52;;
63434;SDS011;68814;50.872;5.306;2023-08-30T05:12:36;24.73;;;15.25;;
63434;SDS011;68814;50.872;5.306;2023-08-30T05:15:02;19.85;;;14.98;;
63434;SDS011;68814;50.872;5.306;2023-08-30T05:17:29;20.75;;;14.23;;
63434;SDS011;68814;50.872;5.306;2023-08-30T05:19:58;19.35;;;14.15;;
63434;SDS011;68814;50.872;5.306;2023-08-30T05:22:23;20.17;;;15.30;;
63434;SDS011;68814;50.872;5.306;2023-08-30T05:24:49;19.73;;;12.85;;
63434;SDS011;68814;50.872;5.306;2023-08-30T05:27:15;18.65;;;12.30;;
63434;SDS011;68814;50.872;5.306;2023-08-30T05:29:43;20.35;;;12.20;;
63434;SDS011;68814;50.872;5.306;2023-08-30T05:32:08;17.65;;;12.35;;
63434;SDS011;68814;50.872;5.306;2023-08-30T05:34:37;19.10;;;12.57;;
63434;SDS011;68814;50.872;5.306;2023-08-30T05:37:03;20.10;;;13.27;;
63434;SDS011;68814;50.872;5.306;2023-08-30T05:39:29;19.23;;;12.02;;
63434;SDS011;68814;50.872;5.306;2023-08-30T05:41:57;20.17;;;11.32;;
63434;SDS011;68814;50.872;5.306;2023-08-30T05:44:22;16.52;;;11.27;;
63434;SDS011;68814;50.872;5.306;2023-08-30T05:46:48;15.60;;;11.85;;
63434;SDS011;68814;50.872;5.306;2023-08-30T05:49:14;19.42;;;12.48;;
63434;SDS011;68814;50.872;5.306;2023-08-30T05:51:40;14.57;;;11.27;;
63434;SDS011;68814;50.872;5.306;2023-08-30T05:54:06;20.02;;;12.10;;
63434;SDS011;68814;50.872;5.306;2023-08-30T05:56:32;19.90;;;11.18;;
63434;SDS011;68814;50.872;5.306;2023-08-30T05:58:57;16.58;;;11.45;;
63434;SDS011;68814;50.872;5.306;2023-08-30T06:01:23;20.10;;;11.27;;
63434;SDS011;68814;50.872;5.306;2023-08-30T06:03:49;15.02;;;10.85;;
63434;SDS011;68814;50.872;5.306;2023-08-30T06:06:15;14.20;;;10.70;;
63434;SDS011;68814;50.872;5.306;2023-08-30T06:08:44;19.17;;;11.20;;
63434;SDS011;68814;50.872;5.306;2023-08-30T06:11:10;11.50;;;8.85;;
63434;SDS011;68814;50.872;5.306;2023-08-30T06:13:35;13.70;;;9.32;;
63434;SDS011;68814;50.872;5.306;2023-08-30T06:16:01;14.50;;;9.45;;
63434;SDS011;68814;50.872;5.306;2023-08-30T06:18:29;15.60;;;8.73;;
63434;SDS011;68814;50.872;5.306;2023-08-30T06:20:55;13.90;;;8.85;;
63434;SDS011;68814;50.872;5.306;2023-08-30T06:23:21;16.27;;;6.57;;
63434;SDS011;68814;50.872;5.306;2023-08-30T06:25:56;12.75;;;6.20;;
63434;SDS011;68814;50.872;5.306;2023-08-30T06:28:22;10.25;;;5.82;;
63434;SDS011;68814;50.872;5.306;2023-08-30T06:30:49;6.82;;;5.15;;
63434;SDS011;68814;50.872;5.306;2023-08-30T06:33:15;9.05;;;4.82;;
63434;SDS011;68814;50.872;5.306;2023-08-30T06:35:41;5.75;;;3.95;;
63434;SDS011;68814;50.872;5.306;2023-08-30T06:38:07;9.40;;;4.53;;
63434;SDS011;68814;50.872;5.306;2023-08-30T06:40:33;9.27;;;5.65;;
63434;SDS011;68814;50.872;5.306;2023-08-30T06:43:00;6.13;;;4.20;;
63434;SDS011;68814;50.872;5.306;2023-08-30T06:45:26;6.57;;;4.70;;
63434;SDS011;68814;50.872;5.306;2023-08-30T06:47:51;8.50;;;4.00;;
63434;SDS011;68814;50.872;5.306;2023-08-30T06:50:17;7.40;;;5.05;;
63434;SDS011;68814;50.872;5.306;2023-08-30T06:52:43;7.45;;;4.35;;
63434;SDS011;68814;50.872;5.306;2023-08-30T06:55:09;9.90;;;4.70;;
63434;SDS011;68814;50.872;5.306;2023-08-30T06:57:35;8.50;;;3.85;;
63434;SDS011;68814;50.872;5.306;2023-08-30T07:00:01;9.45;;;4.50;;
63434;SDS011;68814;50.872;5.306;2023-08-30T07:02:36;5.82;;;4.32;;
63434;SDS011;68814;50.872;5.306;2023-08-30T07:05:02;8.68;;;4.72;;
63434;SDS011;68814;50.872;5.306;2023-08-30T07:07:30;7.45;;;4.07;;
63434;SDS011;68814;50.872;5.306;2023-08-30T07:09:56;7.03;;;4.22;;
63434;SDS011;68814;50.872;5.306;2023-08-30T07:12:22;9.63;;;4.78;;
63434;SDS011;68814;50.872;5.306;2023-08-30T07:14:47;5.30;;;4.22;;
63434;SDS011;68814;50.872;5.306;2023-08-30T07:17:13;9.63;;;4.10;;
63434;SDS011;68814;50.872;5.306;2023-08-30T07:19:39;7.63;;;4.10;;
63434;SDS011;68814;50.872;5.306;2023-08-30T07:22:04;6.57;;;3.75;;
63434;SDS011;68814;50.872;5.306;2023-08-30T07:24:32;7.88;;;3.90;;
63434;SDS011;68814;50.872;5.306;2023-08-30T07:26:58;5.13;;;3.30;;
63434;SDS011;68814;50.872;5.306;2023-08-30T07:29:24;8.65;;;3.60;;
63434;SDS011;68814;50.872;5.306;2023-08-30T07:31:49;8.38;;;3.83;;
63434;SDS011;68814;50.872;5.306;2023-08-30T07:34:18;6.70;;;3.80;;
63434;SDS011;68814;50.872;5.306;2023-08-30T07:36:44;5.88;;;3.60;;
63434;SDS011;68814;50.872;5.306;2023-08-30T07:39:10;9.48;;;3.80;;
63434;SDS011;68814;50.872;5.306;2023-08-30T07:41:35;6.60;;;3.58;;
63434;SDS011;68814;50.872;5.306;2023-08-30T07:44:02;7.07;;;3.47;;
63434;SDS011;68814;50.872;5.306;2023-08-30T07:46:28;7.40;;;4.28;;
63434;SDS011;68814;50.872;5.306;2023-08-30T07:48:54;6.68;;;3.30;;
63434;SDS011;68814;50.872;5.306;2023-08-30T07:51:20;7.45;;;3.40;;
63434;SDS011;68814;50.872;5.306;2023-08-30T07:53:46;4.75;;;2.95;;
63434;SDS011;68814;50.872;5.306;2023-08-30T07:56:11;6.30;;;3.30;;
63434;SDS011;68814;50.872;5.306;2023-08-30T07:58:37;8.10;;;3.25;;
63434;SDS011;68814;50.872;5.306;2023-08-30T08:01:03;4.68;;;3.00;;
63434;SDS011;68814;50.872;5.306;2023-08-30T08:03:29;7.90;;;3.67;;
63434;SDS011;68814;50.872;5.306;2023-08-30T08:05:54;10.57;;;3.53;;
63434;SDS011;68814;50.872;5.306;2023-08-30T08:08:20;4.30;;;3.13;;
63434;SDS011;68814;50.872;5.306;2023-08-30T08:10:46;5.80;;;3.63;;
63434;SDS011;68814;50.872;5.306;2023-08-30T08:13:11;7.40;;;3.60;;
63434;SDS011;68814;50.872;5.306;2023-08-30T08:15:37;5.70;;;3.25;;
63434;SDS011;68814;50.872;5.306;2023-08-30T08:18:03;6.60;;;4.05;;
63434;SDS011;68814;50.872;5.306;2023-08-30T08:20:32;6.60;;;3.85;;
63434;SDS011;68814;50.872;5.306;2023-08-30T08:22:58;14.15;;;4.88;;
63434;SDS011;68814;50.872;5.306;2023-08-30T08:25:24;9.32;;;4.72;;
63434;SDS011;68814;50.872;5.306;2023-08-30T08:27:50;10.88;;;4.55;;
63434;SDS011;68814;50.872;5.306;2023-08-30T08:30:18;11.35;;;5.25;;
63434;SDS011;68814;50.872;5.306;2023-08-30T08:32:45;9.48;;;5.00;;
63434;SDS011;68814;50.872;5.306;2023-08-30T08:35:12;8.35;;;5.07;;
63434;SDS011;68814;50.872;5.306;2023-08-30T08:37:38;9.27;;;4.90;;
63434;SDS011;68814;50.872;5.306;2023-08-30T08:40:04;8.90;;;4.65;;
63434;SDS011;68814;50.872;5.306;2023-08-30T08:42:33;12.73;;;5.18;;
63434;SDS011;68814;50.872;5.306;2023-08-30T08:45:01;9.70;;;4.97;;
63434;SDS011;68814;50.872;5.306;2023-08-30T08:47:32;10.63;;;4.90;;
63434;SDS011;68814;50.872;5.306;2023-08-30T08:49:58;9.82;;;4.53;;
63434;SDS011;68814;50.872;5.306;2023-08-30T08:52:28;8.60;;;4.45;;
63434;SDS011;68814;50.872;5.306;2023-08-30T08:54:54;9.82;;;4.63;;
63434;SDS011;68814;50.872;5.306;2023-08-30T08:57:20;10.40;;;5.45;;
63434;SDS011;68814;50.872;5.306;2023-08-30T08:59:46;11.80;;;4.80;;
63434;SDS011;68814;50.872;5.306;2023-08-30T09:02:13;15.65;;;5.70;;
63434;SDS011;68814;50.872;5.306;2023-08-30T09:04:39;7.82;;;5.28;;
63434;SDS011;68814;50.872;5.306;2023-08-30T09:07:06;13.70;;;5.97;;
63434;SDS011;68814;50.872;5.306;2023-08-30T09:09:32;10.02;;;5.50;;
63434;SDS011;68814;50.872;5.306;2023-08-30T09:11:58;6.85;;;5.22;;
63434;SDS011;68814;50.872;5.306;2023-08-30T09:14:24;8.80;;;5.00;;
63434;SDS011;68814;50.872;5.306;2023-08-30T09:16:56;11.10;;;5.22;;
63434;SDS011;68814;50.872;5.306;2023-08-30T09:19:27;9.90;;;5.80;;
63434;SDS011;68814;50.872;5.306;2023-08-30T09:21:59;12.70;;;6.25;;
63434;SDS011;68814;50.872;5.306;2023-08-30T09:24:25;6.88;;;4.88;;
63434;SDS011;68814;50.872;5.306;2023-08-30T09:26:51;9.05;;;5.25;;
63434;SDS011;68814;50.872;5.306;2023-08-30T09:29:19;7.45;;;5.00;;
63434;SDS011;68814;50.872;5.306;2023-08-30T09:31:50;6.85;;;5.00;;
63434;SDS011;68814;50.872;5.306;2023-08-30T09:34:17;7.40;;;5.28;;
63434;SDS011;68814;50.872;5.306;2023-08-30T09:36:49;7.55;;;5.05;;
63434;SDS011;68814;50.872;5.306;2023-08-30T09:39:15;10.02;;;5.75;;
63434;SDS011;68814;50.872;5.306;2023-08-30T09:41:41;9.45;;;5.00;;
63434;SDS011;68814;50.872;5.306;2023-08-30T09:46:53;7.53;;;5.10;;
63434;SDS011;68814;50.872;5.306;2023-08-30T09:49:21;8.93;;;5.35;;
63434;SDS011;68814;50.872;5.306;2023-08-30T09:52:00;6.72;;;4.88;;
63434;SDS011;68814;50.872;5.306;2023-08-30T09:54:52;9.02;;;4.68;;
63434;SDS011;68814;50.872;5.306;2023-08-30T10:30:42;5.88;;;4.00;;
63434;SDS011;68814;50.872;5.306;2023-08-30T10:33:13;5.32;;;3.78;;
63434;SDS011;68814;50.872;5.306;2023-08-30T10:35:49;4.38;;;3.35;;
63434;SDS011;68814;50.872;5.306;2023-08-30T10:38:26;3.97;;;3.15;;
63434;SDS011;68814;50.872;5.306;2023-08-30T10:40:53;3.40;;;2.70;;
63434;SDS011;68814;50.872;5.306;2023-08-30T10:43:27;5.60;;;2.70;;
63434;SDS011;68814;50.872;5.306;2023-08-30T10:46:02;2.50;;;2.30;;
63434;SDS011;68814;50.872;5.306;2023-08-30T10:48:38;4.95;;;2.65;;
63434;SDS011;68814;50.872;5.306;2023-08-30T10:51:22;2.35;;;2.15;;
63434;SDS011;68814;50.872;5.306;2023-08-30T10:54:22;3.33;;;2.30;;
63434;SDS011;68814;50.872;5.306;2023-08-30T10:59:20;1.65;;;1.55;;
63434;SDS011;68814;50.872;5.306;2023-08-30T11:01:47;2.58;;;1.65;;
63434;SDS011;68814;50.872;5.306;2023-08-30T11:04:15;1.70;;;1.55;;
63434;SDS011;68814;50.872;5.306;2023-08-30T11:06:45;1.80;;;1.50;;
63434;SDS011;68814;50.872;5.306;2023-08-30T11:09:15;1.67;;;1.35;;
63434;SDS011;68814;50.872;5.306;2023-08-30T11:11:46;2.08;;;1.70;;
63434;SDS011;68814;50.872;5.306;2023-08-30T11:14:12;1.67;;;1.40;;
63434;SDS011;68814;50.872;5.306;2023-08-30T11:16:38;2.28;;;1.40;;
63434;SDS011;68814;50.872;5.306;2023-08-30T11:19:04;1.13;;;1.05;;
63434;SDS011;68814;50.872;5.306;2023-08-30T11:21:32;1.35;;;1.10;;
63434;SDS011;68814;50.872;5.306;2023-08-30T11:24:18;1.23;;;0.90;;
63434;SDS011;68814;50.872;5.306;2023-08-30T11:26:44;1.35;;;0.98;;
63434;SDS011;68814;50.872;5.306;2023-08-30T11:29:09;1.95;;;1.30;;
63434;SDS011;68814;50.872;5.306;2023-08-30T11:31:35;1.92;;;0.95;;
63434;SDS011;68814;50.872;5.306;2023-08-30T11:34:07;1.85;;;1.08;;
63434;SDS011;68814;50.872;5.306;2023-08-30T11:36:42;1.48;;;1.08;;
63434;SDS011;68814;50.872;5.306;2023-08-30T11:39:08;1.60;;;1.33;;
63434;SDS011;68814;50.872;5.306;2023-08-30T11:41:36;1.08;;;0.93;;
63434;SDS011;68814;50.872;5.306;2023-08-30T11:44:13;1.85;;;1.30;;
63434;SDS011;68814;50.872;5.306;2023-08-30T11:46:39;2.10;;;1.20;;
63434;SDS011;68814;50.872;5.306;2023-08-30T11:49:04;3.72;;;1.30;;
63434;SDS011;68814;50.872;5.306;2023-08-30T11:51:30;1.67;;;1.35;;
63434;SDS011;68814;50.872;5.306;2023-08-30T11:53:57;1.50;;;1.40;;
63434;SDS011;68814;50.872;5.306;2023-08-30T11:56:24;3.83;;;1.80;;
63434;SDS011;68814;50.872;5.306;2023-08-30T11:58:50;3.80;;;2.13;;
63434;SDS011;68814;50.872;5.306;2023-08-30T12:01:16;2.28;;;1.80;;
63434;SDS011;68814;50.872;5.306;2023-08-30T12:03:44;2.60;;;1.83;;
63434;SDS011;68814;50.872;5.306;2023-08-30T12:06:15;3.28;;;1.92;;
63434;SDS011;68814;50.872;5.306;2023-08-30T12:08:41;3.03;;;1.60;;
63434;SDS011;68814;50.872;5.306;2023-08-30T12:11:16;4.32;;;1.90;;
63434;SDS011;68814;50.872;5.306;2023-08-30T12:13:45;4.13;;;2.38;;
63434;SDS011;68814;50.872;5.306;2023-08-30T12:16:16;4.40;;;2.38;;
63434;SDS011;68814;50.872;5.306;2023-08-30T12:18:42;5.00;;;2.72;;
63434;SDS011;68814;50.872;5.306;2023-08-30T12:21:08;2.40;;;2.05;;
63434;SDS011;68814;50.872;5.306;2023-08-30T12:23:35;2.33;;;2.10;;
63434;SDS011;68814;50.872;5.306;2023-08-30T12:28:31;3.40;;;2.10;;
63434;SDS011;68814;50.872;5.306;2023-08-30T12:30:59;6.25;;;2.42;;
63434;SDS011;68814;50.872;5.306;2023-08-30T12:33:25;2.60;;;2.30;;
63434;SDS011;68814;50.872;5.306;2023-08-30T12:35:51;2.47;;;1.70;;
63434;SDS011;68814;50.872;5.306;2023-08-30T12:38:17;4.25;;;2.13;;
63434;SDS011;68814;50.872;5.306;2023-08-30T12:40:46;3.03;;;2.15;;
63434;SDS011;68814;50.872;5.306;2023-08-30T12:43:17;2.28;;;1.95;;
63434;SDS011;68814;50.872;5.306;2023-08-30T12:45:45;2.80;;;1.75;;
63434;SDS011;68814;50.872;5.306;2023-08-30T12:48:11;2.85;;;2.03;;
63434;SDS011;68814;50.872;5.306;2023-08-30T12:50:39;3.08;;;2.10;;
63434;SDS011;68814;50.872;5.306;2023-08-30T12:53:05;2.58;;;2.33;;
63434;SDS011;68814;50.872;5.306;2023-08-30T12:55:31;3.25;;;2.25;;
63434;SDS011;68814;50.872;5.306;2023-08-30T12:57:57;3.20;;;2.65;;
63434;SDS011;68814;50.872;5.306;2023-08-30T13:00:23;5.22;;;3.03;;
63434;SDS011;68814;50.872;5.306;2023-08-30T13:02:49;3.65;;;3.08;;
63434;SDS011;68814;50.872;5.306;2023-08-30T13:05:15;4.22;;;3.28;;
63434;SDS011;68814;50.872;5.306;2023-08-30T13:07:50;4.72;;;3.22;;
63434;SDS011;68814;50.872;5.306;2023-08-30T13:10:47;5.72;;;3.45;;
63434;SDS011;68814;50.872;5.306;2023-08-30T13:13:12;13.98;;;6.20;;
63434;SDS011;68814;50.872;5.306;2023-08-30T13:15:40;14.52;;;5.40;;
63434;SDS011;68814;50.872;5.306;2023-08-30T13:18:08;6.35;;;4.07;;
63434;SDS011;68814;50.872;5.306;2023-08-30T13:20:37;8.82;;;4.20;;
63434;SDS011;68814;50.872;5.306;2023-08-30T13:23:04;10.60;;;4.32;;
63434;SDS011;68814;50.872;5.306;2023-08-30T13:25:30;12.70;;;4.57;;
63434;SDS011;68814;50.872;5.306;2023-08-30T13:27:55;7.55;;;4.53;;
63434;SDS011;68814;50.872;5.306;2023-08-30T13:30:30;6.72;;;4.78;;
63434;SDS011;68814;50.872;5.306;2023-08-30T13:32:58;7.45;;;4.35;;
63434;SDS011;68814;50.872;5.306;2023-08-30T13:35:26;8.48;;;4.78;;
63434;SDS011;68814;50.872;5.306;2023-08-30T13:38:03;7.45;;;5.00;;
63434;SDS011;68814;50.872;5.306;2023-08-30T13:40:46;8.98;;;4.65;;
63434;SDS011;68814;50.872;5.306;2023-08-30T13:43:12;9.25;;;5.40;;
63434;SDS011;68814;50.872;5.306;2023-08-30T13:45:47;7.50;;;4.95;;
63434;SDS011;68814;50.872;5.306;2023-08-30T13:48:38;8.35;;;4.57;;
63434;SDS011;68814;50.872;5.306;2023-08-30T13:51:04;9.95;;;3.92;;
63434;SDS011;68814;50.872;5.306;2023-08-30T13:53:29;6.72;;;3.50;;
63434;SDS011;68814;50.872;5.306;2023-08-30T13:55:55;8.88;;;3.50;;
63434;SDS011;68814;50.872;5.306;2023-08-30T13:58:21;7.53;;;3.03;;
63434;SDS011;68814;50.872;5.306;2023-08-30T14:00:46;10.10;;;3.05;;
63434;SDS011;68814;50.872;5.306;2023-08-30T14:03:12;3.97;;;2.38;;
63434;SDS011;68814;50.872;5.306;2023-08-30T14:05:38;7.47;;;2.72;;
63434;SDS011;68814;50.872;5.306;2023-08-30T14:08:06;12.18;;;3.20;;
63434;SDS011;68814;50.872;5.306;2023-08-30T14:10:32;14.30;;;2.65;;
63434;SDS011;68814;50.872;5.306;2023-08-30T14:12:58;11.77;;;2.40;;
63434;SDS011;68814;50.872;5.306;2023-08-30T14:15:24;11.52;;;2.03;;
63434;SDS011;68814;50.872;5.306;2023-08-30T14:17:49;7.82;;;2.42;;
63434;SDS011;68814;50.872;5.306;2023-08-30T14:20:15;6.10;;;1.90;;
63434;SDS011;68814;50.872;5.306;2023-08-30T14:22:44;6.60;;;1.88;;
63434;SDS011;68814;50.872;5.306;2023-08-30T14:25:19;6.38;;;1.67;;
63434;SDS011;68814;50.872;5.306;2023-08-30T14:27:56;7.32;;;2.38;;
63434;SDS011;68814;50.872;5.306;2023-08-30T14:30:28;5.53;;;1.50;;
63434;SDS011;68814;50.872;5.306;2023-08-30T14:32:57;11.48;;;1.20;;
63434;SDS011;68814;50.872;5.306;2023-08-30T14:38:08;6.45;;;1.50;;
63434;SDS011;68814;50.872;5.306;2023-08-30T14:40:37;6.43;;;1.55;;
63434;SDS011;68814;50.872;5.306;2023-08-30T14:43:07;8.95;;;1.65;;
63434;SDS011;68814;50.872;5.306;2023-08-30T14:45:38;8.63;;;1.50;;
63434;SDS011;68814;50.872;5.306;2023-08-30T14:51:17;3.70;;;1.30;;
63434;SDS011;68814;50.872;5.306;2023-08-30T14:57:27;7.20;;;1.52;;
63434;SDS011;68814;50.872;5.306;2023-08-30T15:00:12;7.75;;;1.30;;
63434;SDS011;68814;50.872;5.306;2023-08-30T15:02:41;6.60;;;1.30;;
63434;SDS011;68814;50.872;5.306;2023-08-30T15:05:14;7.15;;;1.10;;
63434;SDS011;68814;50.872;5.306;2023-08-30T15:07:42;3.53;;;0.82;;
63434;SDS011;68814;50.872;5.306;2023-08-30T15:10:08;4.47;;;1.30;;
63434;SDS011;68814;50.872;5.306;2023-08-30T15:12:42;5.72;;;1.17;;
63434;SDS011;68814;50.872;5.306;2023-08-30T15:15:07;9.15;;;1.17;;
63434;SDS011;68814;50.872;5.306;2023-08-30T15:17:43;8.70;;;1.05;;
63434;SDS011;68814;50.872;5.306;2023-08-30T15:20:08;7.93;;;1.98;;
63434;SDS011;68814;50.872;5.306;2023-08-30T15:22:44;4.47;;;1.63;;
63434;SDS011;68814;50.872;5.306;2023-08-30T15:58:50;4.75;;;0.70;;
63434;SDS011;68814;50.872;5.306;2023-08-30T16:01:15;5.43;;;1.08;;
63434;SDS011;68814;50.872;5.306;2023-08-30T16:03:42;5.57;;;1.27;;
63434;SDS011;68814;50.872;5.306;2023-08-30T16:06:08;2.63;;;0.70;;
63434;SDS011;68814;50.872;5.306;2023-08-30T16:08:34;2.88;;;0.90;;
63434;SDS011;68814;50.872;5.306;2023-08-30T16:11:02;2.85;;;0.70;;